YV2355 SVVG-SVVL
Flight info
| Callsign | YV2355 |
|---|---|
| Flight time | 0h 44m |
| Altitude | 9000 |
| Route | EVG W41 ERIXO VRA |
| Aircraft | C208/L-SDC/C |
Departure
| Time | 2026-04-17 23:10 |
|---|---|
| Airport | Juan Pablo Pérez Alfonso Airport (SVVG) |
Arrival
| Time | 2026-04-17 23:54 |
|---|---|
| Airport | Dr. Antonio Nicolás Briceño Airport (SVVL) |
| Time | Latitude | Longitude | Altitude | Speed | Heading |
|---|---|---|---|---|---|
| 2026-04-17 22:57 | 8.62388 | -71.66292 | 278 ft | 0 kts | 283° |
| 2026-04-17 22:58 | 8.62389 | -71.66297 | 278 ft | 3 kts | 276° |
| 2026-04-17 22:58 | 8.62416 | -71.66327 | 278 ft | 6 kts | 344° |
| 2026-04-17 22:58 | 8.62450 | -71.66331 | 279 ft | 0 kts | 354° |
| 2026-04-17 23:06 | 8.62468 | -71.66333 | 279 ft | 3 kts | 353° |
| 2026-04-17 23:06 | 8.62475 | -71.66334 | 279 ft | 0 kts | 353° |
| 2026-04-17 23:07 | 8.62489 | -71.66336 | 279 ft | 3 kts | 349° |
| 2026-04-17 23:07 | 8.62521 | -71.66342 | 279 ft | 1 kts | 346° |
| 2026-04-17 23:07 | 8.62522 | -71.66342 | 279 ft | 1 kts | 346° |
| 2026-04-17 23:07 | 8.62542 | -71.66350 | 279 ft | 3 kts | 292° |
| 2026-04-17 23:08 | 8.62541 | -71.66370 | 279 ft | 0 kts | 263° |
| 2026-04-17 23:08 | 8.62537 | -71.66396 | 279 ft | 19 kts | 262° |
| 2026-04-17 23:08 | 8.62498 | -71.66673 | 278 ft | 60 kts | 261° |
| 2026-04-17 23:09 | 8.62426 | -71.67183 | 302 ft | 82 kts | 263° |
| 2026-04-17 23:09 | 8.62352 | -71.67776 | 391 ft | 87 kts | 264° |
| 2026-04-17 23:09 | 8.62311 | -71.68384 | 516 ft | 87 kts | 268° |
| 2026-04-17 23:09 | 8.62242 | -71.68981 | 647 ft | 86 kts | 260° |
| 2026-04-17 23:10 | 8.62197 | -71.69617 | 714 ft | 98 kts | 276° |
| 2026-04-17 23:10 | 8.62515 | -71.70229 | 836 ft | 105 kts | 327° |
| 2026-04-17 23:10 | 8.63240 | -71.70281 | 936 ft | 117 kts | 26° |
| 2026-04-17 23:10 | 8.63912 | -71.69808 | 1178 ft | 116 kts | 38° |
| 2026-04-17 23:11 | 8.64541 | -71.69304 | 1443 ft | 115 kts | 38° |
| 2026-04-17 23:11 | 8.65167 | -71.68804 | 1690 ft | 114 kts | 38° |
| 2026-04-17 23:11 | 8.65794 | -71.68306 | 1918 ft | 115 kts | 38° |
| 2026-04-17 23:11 | 8.66426 | -71.67806 | 2151 ft | 116 kts | 38° |
| 2026-04-17 23:12 | 8.67069 | -71.67300 | 2379 ft | 117 kts | 39° |
| 2026-04-17 23:12 | 8.67649 | -71.66718 | 2606 ft | 118 kts | 50° |
| 2026-04-17 23:12 | 8.68183 | -71.66096 | 2831 ft | 118 kts | 49° |
| 2026-04-17 23:12 | 8.68726 | -71.65466 | 3059 ft | 119 kts | 50° |
| 2026-04-17 23:13 | 8.69270 | -71.64834 | 3286 ft | 119 kts | 49° |
| 2026-04-17 23:13 | 8.69815 | -71.64201 | 3513 ft | 120 kts | 50° |
| 2026-04-17 23:13 | 8.70350 | -71.63548 | 3718 ft | 122 kts | 54° |
| 2026-04-17 23:13 | 8.70867 | -71.62861 | 3921 ft | 123 kts | 52° |
| 2026-04-17 23:14 | 8.71412 | -71.62177 | 4104 ft | 126 kts | 51° |
| 2026-04-17 23:14 | 8.71978 | -71.61481 | 4289 ft | 129 kts | 51° |
| 2026-04-17 23:14 | 8.72555 | -71.60777 | 4468 ft | 131 kts | 51° |
| 2026-04-17 23:14 | 8.73141 | -71.60066 | 4649 ft | 132 kts | 50° |
| 2026-04-17 23:15 | 8.73730 | -71.59351 | 4844 ft | 132 kts | 50° |
| 2026-04-17 23:15 | 8.74310 | -71.58652 | 5044 ft | 131 kts | 50° |
| 2026-04-17 23:15 | 8.74892 | -71.57949 | 5245 ft | 130 kts | 51° |
| 2026-04-17 23:15 | 8.75469 | -71.57251 | 5446 ft | 130 kts | 51° |
| 2026-04-17 23:16 | 8.76050 | -71.56545 | 5646 ft | 131 kts | 50° |
| 2026-04-17 23:16 | 8.76635 | -71.55841 | 5848 ft | 131 kts | 50° |
| 2026-04-17 23:16 | 8.77212 | -71.55139 | 6049 ft | 130 kts | 51° |
| 2026-04-17 23:16 | 8.77785 | -71.54444 | 6244 ft | 128 kts | 50° |
| 2026-04-17 23:17 | 8.78357 | -71.53758 | 6437 ft | 127 kts | 50° |
| 2026-04-17 23:17 | 8.78928 | -71.53066 | 6613 ft | 129 kts | 50° |
| 2026-04-17 23:17 | 8.79503 | -71.52368 | 6787 ft | 129 kts | 50° |
| 2026-04-17 23:17 | 8.80081 | -71.51669 | 6962 ft | 130 kts | 50° |
| 2026-04-17 23:18 | 8.80658 | -71.50970 | 7124 ft | 130 kts | 50° |
| 2026-04-17 23:18 | 8.81238 | -71.50267 | 7275 ft | 130 kts | 50° |
| 2026-04-17 23:18 | 8.81816 | -71.49568 | 7419 ft | 129 kts | 50° |
| 2026-04-17 23:18 | 8.82389 | -71.48874 | 7566 ft | 128 kts | 50° |
| 2026-04-17 23:19 | 8.82952 | -71.48192 | 7712 ft | 128 kts | 50° |
| 2026-04-17 23:19 | 8.83522 | -71.47504 | 7862 ft | 127 kts | 50° |
| 2026-04-17 23:19 | 8.84089 | -71.46816 | 8009 ft | 127 kts | 50° |
| 2026-04-17 23:19 | 8.84658 | -71.46126 | 8156 ft | 127 kts | 50° |
| 2026-04-17 23:20 | 8.85222 | -71.45443 | 8292 ft | 127 kts | 50° |
| 2026-04-17 23:20 | 8.85793 | -71.44752 | 8420 ft | 129 kts | 50° |
| 2026-04-17 23:20 | 8.86370 | -71.44053 | 8540 ft | 131 kts | 50° |
| 2026-04-17 23:20 | 8.86957 | -71.43340 | 8647 ft | 133 kts | 50° |
| 2026-04-17 23:21 | 8.87556 | -71.42614 | 8754 ft | 135 kts | 50° |
| 2026-04-17 23:21 | 8.88161 | -71.41880 | 8860 ft | 136 kts | 50° |
| 2026-04-17 23:21 | 8.88773 | -71.41137 | 8967 ft | 138 kts | 50° |
| 2026-04-17 23:21 | 8.89397 | -71.40380 | 9001 ft | 143 kts | 51° |
| 2026-04-17 23:22 | 8.90038 | -71.39598 | 9005 ft | 149 kts | 51° |
| 2026-04-17 23:22 | 8.90708 | -71.38783 | 9011 ft | 153 kts | 51° |
| 2026-04-17 23:22 | 8.91392 | -71.37951 | 9020 ft | 153 kts | 50° |
| 2026-04-17 23:22 | 8.92074 | -71.37125 | 9007 ft | 153 kts | 50° |
| 2026-04-17 23:23 | 8.92755 | -71.36302 | 9005 ft | 152 kts | 50° |
| 2026-04-17 23:23 | 8.93431 | -71.35482 | 9005 ft | 152 kts | 50° |
| 2026-04-17 23:23 | 8.94106 | -71.34664 | 9004 ft | 151 kts | 51° |
| 2026-04-17 23:23 | 8.94780 | -71.33847 | 9002 ft | 151 kts | 50° |
| 2026-04-17 23:24 | 8.95455 | -71.33028 | 9003 ft | 151 kts | 51° |
| 2026-04-17 23:24 | 8.96129 | -71.32211 | 9002 ft | 152 kts | 50° |
| 2026-04-17 23:24 | 8.96804 | -71.31392 | 9002 ft | 151 kts | 50° |
| 2026-04-17 23:24 | 8.97477 | -71.30576 | 9002 ft | 151 kts | 51° |
| 2026-04-17 23:25 | 8.98152 | -71.29757 | 9001 ft | 151 kts | 50° |
| 2026-04-17 23:25 | 8.98826 | -71.28940 | 9001 ft | 151 kts | 51° |
| 2026-04-17 23:25 | 8.99503 | -71.28118 | 9002 ft | 152 kts | 51° |
| 2026-04-17 23:25 | 9.00184 | -71.27293 | 9013 ft | 154 kts | 51° |
| 2026-04-17 23:26 | 9.00870 | -71.26458 | 9007 ft | 155 kts | 51° |
| 2026-04-17 23:26 | 9.01553 | -71.25627 | 9007 ft | 156 kts | 51° |
| 2026-04-17 23:26 | 9.02251 | -71.24780 | 9007 ft | 157 kts | 51° |
| 2026-04-17 23:26 | 9.02953 | -71.23928 | 9012 ft | 158 kts | 51° |
| 2026-04-17 23:27 | 9.03657 | -71.23073 | 9011 ft | 158 kts | 50° |
| 2026-04-17 23:27 | 9.04364 | -71.22217 | 9003 ft | 159 kts | 50° |
| 2026-04-17 23:27 | 9.05074 | -71.21356 | 9002 ft | 159 kts | 51° |
| 2026-04-17 23:27 | 9.05785 | -71.20492 | 9003 ft | 160 kts | 51° |
| 2026-04-17 23:28 | 9.06496 | -71.19628 | 9003 ft | 160 kts | 51° |
| 2026-04-17 23:28 | 9.07207 | -71.18763 | 9007 ft | 160 kts | 51° |
| 2026-04-17 23:28 | 9.07920 | -71.17898 | 9011 ft | 160 kts | 51° |
| 2026-04-17 23:28 | 9.08632 | -71.17031 | 9010 ft | 160 kts | 51° |
| 2026-04-17 23:29 | 9.09346 | -71.16166 | 9005 ft | 160 kts | 51° |
| 2026-04-17 23:29 | 9.10056 | -71.15303 | 9008 ft | 160 kts | 51° |
| 2026-04-17 23:29 | 9.10767 | -71.14440 | 9005 ft | 160 kts | 51° |
| 2026-04-17 23:29 | 9.11475 | -71.13588 | 9010 ft | 160 kts | 50° |
| 2026-04-17 23:30 | 9.12197 | -71.12727 | 9004 ft | 160 kts | 50° |
| 2026-04-17 23:30 | 9.12913 | -71.11858 | 9010 ft | 160 kts | 50° |
| 2026-04-17 23:30 | 9.13627 | -71.10988 | 9006 ft | 161 kts | 50° |
| 2026-04-17 23:30 | 9.14342 | -71.10119 | 9017 ft | 160 kts | 50° |
| 2026-04-17 23:31 | 9.15057 | -71.09249 | 9004 ft | 161 kts | 50° |
| 2026-04-17 23:31 | 9.15772 | -71.08380 | 9016 ft | 161 kts | 50° |
| 2026-04-17 23:31 | 9.16489 | -71.07510 | 9004 ft | 161 kts | 50° |
| 2026-04-17 23:31 | 9.17205 | -71.06639 | 9004 ft | 161 kts | 50° |
| 2026-04-17 23:32 | 9.17914 | -71.05779 | 9009 ft | 161 kts | 50° |
| 2026-04-17 23:32 | 9.18630 | -71.04907 | 9012 ft | 161 kts | 50° |
| 2026-04-17 23:32 | 9.19348 | -71.04036 | 9005 ft | 161 kts | 50° |
| 2026-04-17 23:32 | 9.20066 | -71.03163 | 9012 ft | 161 kts | 50° |
| 2026-04-17 23:33 | 9.20785 | -71.02289 | 9006 ft | 161 kts | 50° |
| 2026-04-17 23:33 | 9.21503 | -71.01416 | 9006 ft | 161 kts | 50° |
| 2026-04-17 23:33 | 9.22220 | -71.00544 | 9017 ft | 161 kts | 50° |
| 2026-04-17 23:33 | 9.22938 | -70.99672 | 9006 ft | 161 kts | 50° |
| 2026-04-17 23:34 | 9.23655 | -70.98800 | 9005 ft | 161 kts | 50° |
| 2026-04-17 23:34 | 9.24375 | -70.97926 | 9004 ft | 161 kts | 50° |
| 2026-04-17 23:34 | 9.25092 | -70.97053 | 9001 ft | 161 kts | 50° |
| 2026-04-17 23:34 | 9.25567 | -70.96475 | 9000 ft | 161 kts | 50° |
| 2026-04-17 23:35 | 9.26284 | -70.95602 | 9003 ft | 161 kts | 50° |
| 2026-04-17 23:35 | 9.27002 | -70.94728 | 9003 ft | 161 kts | 50° |
| 2026-04-17 23:35 | 9.27720 | -70.93857 | 9004 ft | 161 kts | 50° |
| 2026-04-17 23:35 | 9.28670 | -70.92700 | 9005 ft | 161 kts | 50° |
| 2026-04-17 23:36 | 9.29388 | -70.91827 | 9011 ft | 161 kts | 50° |
| 2026-04-17 23:36 | 9.29872 | -70.91237 | 9012 ft | 161 kts | 50° |
| 2026-04-17 23:36 | 9.30580 | -70.90375 | 9006 ft | 161 kts | 50° |
| 2026-04-17 23:36 | 9.31299 | -70.89503 | 9004 ft | 162 kts | 50° |
| 2026-04-17 23:37 | 9.32017 | -70.88626 | 9003 ft | 161 kts | 50° |
| 2026-04-17 23:37 | 9.32736 | -70.87751 | 9001 ft | 162 kts | 50° |
| 2026-04-17 23:37 | 9.33457 | -70.86873 | 9003 ft | 162 kts | 50° |
| 2026-04-17 23:37 | 9.34179 | -70.85996 | 9003 ft | 162 kts | 50° |
| 2026-04-17 23:38 | 9.34899 | -70.85118 | 9005 ft | 162 kts | 50° |
| 2026-04-17 23:38 | 9.35620 | -70.84241 | 9003 ft | 162 kts | 50° |
| 2026-04-17 23:38 | 9.36341 | -70.83363 | 9000 ft | 162 kts | 50° |
| 2026-04-17 23:38 | 9.37062 | -70.82485 | 9003 ft | 162 kts | 50° |
| 2026-04-17 23:39 | 9.37785 | -70.81605 | 9003 ft | 162 kts | 51° |
| 2026-04-17 23:39 | 9.38506 | -70.80724 | 9004 ft | 162 kts | 50° |
| 2026-04-17 23:39 | 9.39229 | -70.79845 | 9002 ft | 162 kts | 50° |
| 2026-04-17 23:39 | 9.39950 | -70.78967 | 9002 ft | 162 kts | 50° |
| 2026-04-17 23:40 | 9.40672 | -70.78089 | 9011 ft | 162 kts | 50° |
| 2026-04-17 23:40 | 9.41393 | -70.77211 | 9003 ft | 162 kts | 50° |
| 2026-04-17 23:40 | 9.42115 | -70.76330 | 9003 ft | 162 kts | 50° |
| 2026-04-17 23:40 | 9.42829 | -70.75462 | 9000 ft | 162 kts | 50° |
| 2026-04-17 23:41 | 9.43550 | -70.74583 | 8998 ft | 162 kts | 50° |
| 2026-04-17 23:41 | 9.44271 | -70.73704 | 9000 ft | 162 kts | 50° |
| 2026-04-17 23:41 | 9.44992 | -70.72826 | 8997 ft | 162 kts | 50° |
| 2026-04-17 23:41 | 9.45714 | -70.71946 | 8999 ft | 162 kts | 50° |
| 2026-04-17 23:42 | 9.46437 | -70.71066 | 8998 ft | 163 kts | 50° |
| 2026-04-17 23:42 | 9.47162 | -70.70183 | 9012 ft | 163 kts | 50° |
| 2026-04-17 23:42 | 9.47887 | -70.69297 | 9016 ft | 163 kts | 50° |
| 2026-04-17 23:42 | 9.48612 | -70.68415 | 9003 ft | 164 kts | 50° |
| 2026-04-17 23:43 | 9.49321 | -70.67554 | 8997 ft | 151 kts | 50° |
| 2026-04-17 23:43 | 9.49979 | -70.66758 | 8863 ft | 147 kts | 51° |
| 2026-04-17 23:43 | 9.50627 | -70.65963 | 8594 ft | 146 kts | 51° |
| 2026-04-17 23:43 | 9.51275 | -70.65172 | 8338 ft | 145 kts | 51° |
| 2026-04-17 23:44 | 9.51701 | -70.64282 | 8082 ft | 142 kts | 77° |
| 2026-04-17 23:44 | 9.51944 | -70.63318 | 7829 ft | 140 kts | 74° |
| 2026-04-17 23:44 | 9.52215 | -70.62377 | 7570 ft | 137 kts | 74° |
| 2026-04-17 23:44 | 9.52469 | -70.61447 | 7314 ft | 137 kts | 75° |
| 2026-04-17 23:45 | 9.52977 | -70.59601 | 6806 ft | 136 kts | 75° |
| 2026-04-17 23:45 | 9.53232 | -70.58680 | 6573 ft | 135 kts | 75° |
| 2026-04-17 23:45 | 9.53480 | -70.57771 | 6365 ft | 133 kts | 74° |
| 2026-04-17 23:46 | 9.53729 | -70.56871 | 6167 ft | 132 kts | 75° |
| 2026-04-17 23:46 | 9.53975 | -70.55988 | 5999 ft | 127 kts | 75° |
| 2026-04-17 23:46 | 9.54200 | -70.55171 | 5990 ft | 116 kts | 74° |
| 2026-04-17 23:46 | 9.54422 | -70.54390 | 5991 ft | 113 kts | 74° |
| 2026-04-17 23:47 | 9.54577 | -70.53619 | 5984 ft | 111 kts | 94° |
| 2026-04-17 23:47 | 9.54266 | -70.52898 | 5854 ft | 119 kts | 133° |
| 2026-04-17 23:47 | 9.53552 | -70.52524 | 5724 ft | 119 kts | 172° |
| 2026-04-17 23:47 | 9.52723 | -70.52674 | 5513 ft | 125 kts | 198° |
| 2026-04-17 23:48 | 9.51887 | -70.52945 | 5293 ft | 128 kts | 195° |
| 2026-04-17 23:48 | 9.51044 | -70.53204 | 5111 ft | 125 kts | 196° |
| 2026-04-17 23:48 | 9.50220 | -70.53458 | 4939 ft | 123 kts | 195° |
| 2026-04-17 23:48 | 9.49408 | -70.53709 | 4771 ft | 121 kts | 195° |
| 2026-04-17 23:49 | 9.48609 | -70.53955 | 4607 ft | 119 kts | 196° |
| 2026-04-17 23:49 | 9.47835 | -70.54194 | 4451 ft | 117 kts | 195° |
| 2026-04-17 23:49 | 9.47055 | -70.54434 | 4296 ft | 118 kts | 195° |
| 2026-04-17 23:49 | 9.46269 | -70.54677 | 4141 ft | 119 kts | 194° |
| 2026-04-17 23:50 | 9.45460 | -70.54924 | 3975 ft | 123 kts | 195° |
| 2026-04-17 23:50 | 9.44644 | -70.55178 | 3810 ft | 122 kts | 195° |
| 2026-04-17 23:50 | 9.43853 | -70.55421 | 3659 ft | 112 kts | 194° |
| 2026-04-17 23:50 | 9.43132 | -70.55642 | 3503 ft | 105 kts | 194° |
| 2026-04-17 23:51 | 9.42449 | -70.55851 | 3364 ft | 101 kts | 194° |
| 2026-04-17 23:51 | 9.41789 | -70.56054 | 3225 ft | 97 kts | 193° |
| 2026-04-17 23:51 | 9.41140 | -70.56253 | 3095 ft | 97 kts | 193° |
| 2026-04-17 23:51 | 9.40489 | -70.56451 | 2967 ft | 98 kts | 194° |
| 2026-04-17 23:52 | 9.39832 | -70.56654 | 2837 ft | 99 kts | 194° |
| 2026-04-17 23:52 | 9.39172 | -70.56859 | 2703 ft | 98 kts | 195° |
| 2026-04-17 23:52 | 9.38524 | -70.57058 | 2567 ft | 96 kts | 195° |
| 2026-04-17 23:52 | 9.37892 | -70.57253 | 2435 ft | 93 kts | 195° |
| 2026-04-17 23:53 | 9.37286 | -70.57443 | 2317 ft | 89 kts | 194° |
| 2026-04-17 23:53 | 9.36700 | -70.57622 | 2196 ft | 87 kts | 194° |
| 2026-04-17 23:53 | 9.36135 | -70.57790 | 2065 ft | 84 kts | 195° |
| 2026-04-17 23:53 | 9.35583 | -70.57965 | 1990 ft | 82 kts | 197° |
| 2026-04-17 23:54 | 9.35026 | -70.58141 | 1867 ft | 84 kts | 197° |
| 2026-04-17 23:54 | 9.34512 | -70.58300 | 1839 ft | 65 kts | 198° |
| 2026-04-17 23:54 | 9.34197 | -70.58398 | 1864 ft | 31 kts | 196° |
| 2026-04-17 23:54 | 9.34030 | -70.58451 | 1882 ft | 22 kts | 197° |
| 2026-04-17 23:55 | 9.33975 | -70.58505 | 1884 ft | 0 kts | 287° |
| 2026-04-17 23:55 | 9.33976 | -70.58506 | 1888 ft | 2 kts | 287° |
| 2026-04-17 23:55 | 9.33987 | -70.58540 | 1887 ft | 9 kts | 294° |
| 2026-04-17 23:56 | 9.34033 | -70.58582 | 1885 ft | 9 kts | 351° |
| 2026-04-17 23:56 | 9.34064 | -70.58601 | 1884 ft | 2 kts | 207° |
| 2026-04-17 23:56 | 9.34054 | -70.58597 | 1884 ft | 0 kts | 150° |